Time;durP1;ratioP1;P1;durP2;ratioP2;P2;SDS_P1;SDS_P2;PMS_P1;PMS_P2;Temp;Humidity;BMP_temperature;BMP_pressure;BME280_temperature;BME280_humidity;BME280_pressure;Samples;Min_cycle;Max_cycle;Signal;HPM_P1;HPM_P2
2022/12/29 00:02:13;;;;;;;19.10;9.98;;;;;;;;;;4878829;29;20044;-71
2022/12/29 00:04:39;;;;;;;14.77;9.25;;;;;;;;;;4880637;29;20049;-70
2022/12/29 00:07:05;;;;;;;15.32;10.13;;;;;;;;;;4873885;29;20037;-70
2022/12/29 00:09:31;;;;;;;17.42;9.55;;;;;;;;;;4849647;29;20099;-70
2022/12/29 00:12:03;;;;;;;16.25;10.93;;;9.10;99.90;;;;;;4897046;29;20047;-70
2022/12/29 00:17:14;;;;;;;13.23;9.90;;;;;;;;;;4863283;29;20045;-70
2022/12/29 00:36:20;;;;;;;20.23;10.85;;;;;;;;;;4873405;29;20498;-70
2022/12/29 00:44:29;;;;;;;23.00;10.90;;;;;;;;;;4870986;29;20049;-70
2022/12/29 00:46:55;;;;;;;23.92;12.63;;;;;;;;;;4868672;29;20056;-70
2022/12/29 00:49:30;;;;;;;18.77;11.50;;;;;;;;;;4863362;29;20100;-70
2022/12/29 00:52:05;;;;;;;17.15;11.55;;;9.10;99.90;;;;;;4847878;29;20049;-71
2022/12/29 00:54:34;;;;;;;16.98;10.90;;;9.50;99.90;;;;;;4878399;29;20049;-70
2022/12/29 00:57:00;;;;;;;20.35;11.52;;;;;;;;;;4861961;29;20204;-70
2022/12/29 00:59:26;;;;;;;18.42;11.50;;;;;;;;;;4862605;29;20044;-70
2022/12/29 01:01:54;;;;;;;21.33;12.20;;;9.70;99.90;;;;;;4879594;29;20044;-70
2022/12/29 01:04:22;;;;;;;16.08;11.10;;;9.50;99.90;;;;;;4878407;29;20125;-71
2022/12/29 01:06:48;;;;;;;19.50;11.43;;;;;;;;;;4878094;29;20083;-71
2022/12/29 01:12:00;;;;;;;17.42;10.98;;;;;;;;;;4883730;29;20076;-70
2022/12/29 01:14:27;;;;;;;16.55;10.98;;;;;;;;;;4866748;29;20088;-70
2022/12/29 01:16:53;;;;;;;20.35;11.82;;;;;;;;;;4864110;29;20494;-70
2022/12/29 01:19:20;;;;;;;16.98;11.45;;;9.60;99.90;;;;;;4879134;29;20047;-70
2022/12/29 01:21:47;;;;;;;15.55;10.30;;;9.60;99.90;;;;;;4862810;29;20498;-70
2022/12/29 01:24:14;;;;;;;15.30;10.32;;;9.50;99.90;;;;;;4870921;29;20048;-70
2022/12/29 01:26:40;;;;;;;20.13;10.38;;;;;;;;;;4880426;29;20052;-70
2022/12/29 01:29:06;;;;;;;18.05;10.30;;;;;;;;;;4879074;29;20042;-70
2022/12/29 01:31:32;;;;;;;20.60;9.23;;;;;;;;;;4877325;29;20072;-70
2022/12/29 01:33:58;;;;;;;15.20;9.70;;;;;;;;;;4879628;29;20115;-70
2022/12/29 01:36:25;;;;;;;14.07;9.65;;;;;;;;;;4873167;29;20033;-70
2022/12/29 01:38:51;;;;;;;16.38;9.48;;;;;;;;;;4879448;29;20040;-70
2022/12/29 01:41:17;;;;;;;14.88;9.52;;;;;;;;;;4877568;29;20385;-70
2022/12/29 01:43:52;;;;;;;15.02;8.75;;;9.50;99.90;;;;;;4867093;29;20049;-69
2022/12/29 01:46:23;;;;;;;16.80;9.63;;;;;;;;;;4871500;29;20055;-69
2022/12/29 01:48:52;;;;;;;15.35;8.95;;;;;;;;;;4875698;29;20036;-70
2022/12/29 01:51:18;;;;;;;15.20;9.45;;;;;;;;;;4872117;29;20036;-70
2022/12/29 01:53:45;;;;;;;13.38;8.77;;;9.60;99.90;;;;;;4877307;29;20028;-72
2022/12/29 01:56:12;;;;;;;16.33;8.80;;;;;;;;;;4868709;29;20063;-70
2022/12/29 01:58:41;;;;;;;16.48;9.38;;;9.50;99.90;;;;;;4879140;29;20048;-70
2022/12/29 02:01:07;;;;;;;15.82;9.40;;;;;;;;;;4878256;29;20389;-69
2022/12/29 02:03:34;;;;;;;17.00;9.90;;;;;;;;;;4869796;29;20453;-69
2022/12/29 02:06:03;;;;;;;16.13;9.63;;;9.50;99.90;;;;;;4879403;29;20088;-71
2022/12/29 02:08:30;;;;;;;16.85;9.85;;;;;;;;;;4865683;29;20033;-70
2022/12/29 02:10:57;;;;;;;19.40;10.00;;;;;;;;;;4882559;29;20557;-70
2022/12/29 02:13:27;;;;;;;21.80;9.50;;;9.50;99.90;;;;;;4865749;29;20041;-71
2022/12/29 02:15:56;;;;;;;16.65;8.93;;;;;;;;;;4898097;29;20397;-75
2022/12/29 02:18:42;;;;;;;12.45;8.27;;;9.40;99.90;;;;;;4882201;29;20049;-74
2022/12/29 02:21:46;;;;;;;11.85;5.28;;;9.40;99.90;;;;;;4878268;29;20044;-74
2022/12/29 02:24:51;;;;;;;8.05;4.57;;;9.40;99.90;;;;;;4845291;29;20052;-74
2022/12/29 02:27:17;;;;;;;8.85;4.15;;;;;;;;;;4866720;29;20128;-74
2022/12/29 02:29:56;;;;;;;7.03;3.53;;;;;;;;;;4869998;29;20152;-73
2022/12/29 02:33:12;;;;;;;7.15;3.13;;;9.40;99.90;;;;;;4870678;29;20613;-74
2022/12/29 02:35:45;;;;;;;2.85;2.10;;;9.40;99.90;;;;;;4821566;29;20050;-74
2022/12/29 02:38:24;;;;;;;6.72;2.70;;;9.50;99.90;;;;;;4868006;29;20135;-74
2022/12/29 02:41:02;;;;;;;3.83;2.03;;;;;;;;;;4886235;29;20044;-74
2022/12/29 02:43:39;;;;;;;5.47;2.50;;;9.50;99.90;;;;;;4866749;29;20105;-74
2022/12/29 02:46:30;;;;;;;3.25;2.10;;;9.70;99.90;;;;;;4870885;29;20037;-74
2022/12/29 02:49:10;;;;;;;5.05;2.30;;;9.50;99.90;;;;;;4859548;29;20435;-74
2022/12/29 02:51:51;;;;;;;5.43;2.60;;;9.50;99.90;;;;;;4869230;29;20493;-74
2022/12/29 02:57:03;;;;;;;6.38;2.20;;;;;;;;;;4864846;29;20443;-72
2022/12/29 02:59:29;;;;;;;3.15;2.42;;;;;;;;;;4876228;29;20386;-72
2022/12/29 03:02:24;;;;;;;5.90;3.78;;;9.40;99.90;;;;;;4878903;29;20481;-72
2022/12/29 03:05:11;;;;;;;9.88;4.10;;;9.20;99.90;;;;;;4879129;29;20048;-72
2022/12/29 03:07:44;;;;;;;7.53;4.50;;;;;;;;;;4864833;29;20185;-71
2022/12/29 03:10:34;;;;;;;9.45;5.70;;;9.10;99.90;;;;;;4878546;29;20040;-71
2022/12/29 03:16:04;;;;;;;14.35;4.75;;;9.40;99.90;;;;;;4881127;29;20080;-72
2022/12/29 03:18:52;;;;;;;11.82;5.50;;;9.20;99.90;;;;;;4871542;29;20434;-72
2022/12/29 03:24:50;;;;;;;12.40;4.60;;;9.10;99.90;;;;;;4869779;29;20045;-71
2022/12/29 03:27:21;;;;;;;20.85;4.25;;;9.20;99.90;;;;;;4892592;29;20516;-71
2022/12/29 03:29:53;;;;;;;21.38;3.67;;;9.20;99.90;;;;;;4872045;29;20604;-71
2022/12/29 03:32:23;;;;;;;17.30;4.38;;;9.10;99.90;;;;;;4875034;29;20040;-71
2022/12/29 03:34:50;;;;;;;13.27;3.20;;;9.20;99.90;;;;;;4875482;29;20048;-71
2022/12/29 03:37:21;;;;;;;22.98;3.88;;;9.30;99.90;;;;;;4871447;29;20059;-71
2022/12/29 03:39:47;;;;;;;17.08;3.70;;;;;;;;;;4866693;29;20495;-70
2022/12/29 03:42:20;;;;;;;16.50;2.75;;;9.00;99.90;;;;;;4877859;29;20045;-71
2022/12/29 03:44:47;;;;;;;15.18;2.78;;;;;;;;;;4867340;29;20049;-71
2022/12/29 03:47:14;;;;;;;18.40;3.30;;;;;;;;;;4876202;29;20120;-71
2022/12/29 03:49:40;;;;;;;14.68;3.22;;;;;;;;;;4896374;29;20044;-71
2022/12/29 03:52:07;;;;;;;30.02;5.10;;;;;;;;;;4864026;29;20101;-71
2022/12/29 03:54:33;;;;;;;14.13;2.75;;;;;;;;;;4863916;29;20048;-71
2022/12/29 03:56:59;;;;;;;17.17;3.08;;;;;;;;;;4864174;29;20363;-71
2022/12/29 03:59:25;;;;;;;11.85;2.55;;;;;;;;;;4880478;29;20127;-71
2022/12/29 04:01:51;;;;;;;12.88;2.53;;;;;;;;;;4877084;29;20055;-71
2022/12/29 04:04:17;;;;;;;19.23;2.78;;;;;;;;;;4854551;29;20045;-71
2022/12/29 04:06:43;;;;;;;13.90;2.60;;;;;;;;;;4873081;29;20070;-71
2022/12/29 04:09:10;;;;;;;12.55;2.42;;;;;;;;;;4865454;29;20162;-71
2022/12/29 04:11:36;;;;;;;13.27;3.72;;;;;;;;;;4870365;29;20141;-71
2022/12/29 04:14:03;;;;;;;7.55;2.33;;;;;;;;;;4863573;29;20101;-71
2022/12/29 04:16:29;;;;;;;18.20;2.30;;;;;;;;;;4868060;29;20044;-70
2022/12/29 04:18:55;;;;;;;12.40;2.85;;;;;;;;;;4870113;29;20100;-71
2022/12/29 04:21:21;;;;;;;20.20;3.05;;;;;;;;;;4867298;29;20052;-71
2022/12/29 04:23:47;;;;;;;19.58;2.72;;;;;;;;;;4874151;29;20077;-73
2022/12/29 04:26:13;;;;;;;17.95;2.95;;;;;;;;;;4865118;29;20048;-73
2022/12/29 04:28:39;;;;;;;19.38;3.05;;;;;;;;;;4877115;29;20537;-73
2022/12/29 04:31:05;;;;;;;30.75;5.35;;;;;;;;;;4864867;29;20044;-74
2022/12/29 04:33:32;;;;;;;28.42;3.35;;;;;;;;;;4865876;29;20482;-74
2022/12/29 04:35:58;;;;;;;35.95;4.22;;;;;;;;;;4889922;29;20170;-74
2022/12/29 04:38:24;;;;;;;33.75;3.13;;;8.80;99.90;;;;;;4867361;29;20045;-73
2022/12/29 04:40:50;;;;;;;39.88;3.45;;;;;;;;;;4870403;29;20390;-73
2022/12/29 04:43:18;;;;;;;57.08;7.68;;;9.00;99.90;;;;;;4889071;29;20406;-73
2022/12/29 04:45:45;;;;;;;34.25;4.40;;;9.00;99.90;;;;;;4870112;29;20048;-73
2022/12/29 04:48:14;;;;;;;49.85;5.18;;;9.00;99.90;;;;;;4873609;29;20055;-73
2022/12/29 04:50:40;;;;;;;31.63;3.10;;;;;;;;;;4864353;29;20053;-73
2022/12/29 04:53:07;;;;;;;39.67;6.60;;;;;;;;;;4864747;29;20060;-73
2022/12/29 04:55:33;;;;;;;47.33;4.43;;;8.90;99.90;;;;;;4876857;29;20055;-73
2022/12/29 04:57:59;;;;;;;35.38;3.38;;;;;;;;;;4869063;29;20464;-74
2022/12/29 05:00:25;;;;;;;27.35;4.28;;;;;;;;;;4867947;29;20065;-74
2022/12/29 05:02:51;;;;;;;41.55;3.70;;;;;;;;;;4874533;29;20045;-71
2022/12/29 05:05:18;;;;;;;37.08;4.88;;;;;;;;;;4863074;29;20056;-71
2022/12/29 05:07:44;;;;;;;30.50;3.53;;;;;;;;;;4869447;29;20525;-71
2022/12/29 05:10:10;;;;;;;40.40;5.00;;;;;;;;;;4863371;29;20072;-71
2022/12/29 05:12:38;;;;;;;50.05;4.45;;;9.10;99.90;;;;;;4878464;29;20438;-71
2022/12/29 05:15:06;;;;;;;47.88;4.57;;;8.70;99.90;;;;;;4862664;29;20482;-71
2022/12/29 05:17:32;;;;;;;36.45;4.15;;;;;;;;;;4883222;29;20049;-71
2022/12/29 05:19:58;;;;;;;44.25;3.75;;;;;;;;;;4879197;29;20362;-71
2022/12/29 05:22:24;;;;;;;52.03;5.68;;;;;;;;;;4879559;29;20207;-71
2022/12/29 05:24:51;;;;;;;47.70;5.13;;;;;;;;;;4864521;29;20112;-71
2022/12/29 05:27:17;;;;;;;48.88;4.85;;;;;;;;;;4876056;29;20502;-71
2022/12/29 05:29:43;;;;;;;47.17;4.30;;;;;;;;;;4878914;29;20044;-71
2022/12/29 05:32:09;;;;;;;38.65;4.47;;;;;;;;;;4879578;29;20074;-71
2022/12/29 05:34:35;;;;;;;53.67;6.45;;;;;;;;;;4868834;29;20049;-71
2022/12/29 05:37:02;;;;;;;31.60;4.13;;;;;;;;;;4870996;29;20131;-71
2022/12/29 05:39:28;;;;;;;45.90;4.70;;;;;;;;;;4876876;29;20044;-71
2022/12/29 05:41:54;;;;;;;37.97;5.00;;;;;;;;;;4883213;29;20135;-71
2022/12/29 05:44:20;;;;;;;41.47;4.55;;;;;;;;;;4899718;29;20091;-71
2022/12/29 05:46:47;;;;;;;37.05;5.63;;;;;;;;;;4881701;29;20040;-71
2022/12/29 05:49:13;;;;;;;43.90;5.28;;;;;;;;;;4873113;29;20045;-71
2022/12/29 05:51:39;;;;;;;34.25;3.92;;;;;;;;;;4870434;29;20135;-71
2022/12/29 05:54:05;;;;;;;37.65;5.18;;;;;;;;;;4866426;29;20053;-71
2022/12/29 05:56:31;;;;;;;29.88;3.92;;;;;;;;;;4880836;29;20040;-71
2022/12/29 05:58:57;;;;;;;30.30;3.45;;;;;;;;;;4881970;29;20481;-71
2022/12/29 06:01:23;;;;;;;40.58;4.60;;;;;;;;;;4892871;29;20041;-72
2022/12/29 06:03:49;;;;;;;34.55;4.18;;;;;;;;;;4867313;29;20091;-71
2022/12/29 06:06:15;;;;;;;38.65;4.13;;;;;;;;;;4882595;29;20044;-71
2022/12/29 06:08:42;;;;;;;34.22;3.33;;;;;;;;;;4858049;29;20040;-71
2022/12/29 06:11:08;;;;;;;37.53;5.03;;;;;;;;;;4881044;29;20119;-71
2022/12/29 06:13:34;;;;;;;31.50;4.15;;;;;;;;;;4890603;29;20037;-71
2022/12/29 06:16:00;;;;;;;45.13;5.80;;;;;;;;;;4877784;29;20561;-72
2022/12/29 06:18:26;;;;;;;35.83;5.78;;;;;;;;;;4870253;29;20036;-71
2022/12/29 06:20:52;;;;;;;48.35;5.22;;;;;;;;;;4865789;29;20047;-71
2022/12/29 06:23:18;;;;;;;50.25;4.47;;;;;;;;;;4886178;29;20080;-70
2022/12/29 06:25:44;;;;;;;46.80;5.25;;;;;;;;;;4878901;29;20124;-71
2022/12/29 06:28:10;;;;;;;33.60;4.28;;;;;;;;;;4870165;29;20036;-71
2022/12/29 06:30:36;;;;;;;52.60;6.63;;;;;;;;;;4882219;29;20474;-72
2022/12/29 06:33:02;;;;;;;45.03;5.93;;;;;;;;;;4867932;29;20052;-71
2022/12/29 06:35:28;;;;;;;43.30;4.32;;;;;;;;;;4879798;29;20056;-71
2022/12/29 06:37:55;;;;;;;45.42;5.32;;;;;;;;;;4898699;29;20139;-71
2022/12/29 06:40:21;;;;;;;52.03;6.50;;;;;;;;;;4882521;29;20056;-71
2022/12/29 06:42:47;;;;;;;45.95;5.28;;;;;;;;;;4871556;29;20093;-71
2022/12/29 06:45:13;;;;;;;50.45;5.68;;;;;;;;;;4849580;29;20048;-71
2022/12/29 06:47:39;;;;;;;42.97;5.47;;;;;;;;;;4868700;29;20049;-71
2022/12/29 06:50:06;;;;;;;46.40;4.93;;;;;;;;;;4876056;29;20048;-71
2022/12/29 06:52:32;;;;;;;42.92;6.07;;;;;;;;;;4881807;29;20500;-71
2022/12/29 06:54:58;;;;;;;45.38;4.28;;;;;;;;;;4866214;29;20045;-71
2022/12/29 06:57:26;;;;;;;49.95;6.78;;;;;;;;;;4876401;29;20119;-71
2022/12/29 06:59:55;;;;;;;52.25;6.13;;;;;;;;;;4872824;29;20045;-71
2022/12/29 07:02:21;;;;;;;39.10;5.55;;;;;;;;;;4879489;29;20045;-71
2022/12/29 07:04:47;;;;;;;55.00;6.70;;;;;;;;;;4868925;29;20049;-69
2022/12/29 07:07:13;;;;;;;46.10;5.57;;;;;;;;;;4870755;29;20123;-72
2022/12/29 07:09:39;;;;;;;55.85;5.93;;;;;;;;;;4850334;29;20053;-72
2022/12/29 07:12:05;;;;;;;42.40;5.70;;;;;;;;;;4882281;29;20474;-72
2022/12/29 07:14:32;;;;;;;48.92;5.18;;;;;;;;;;4883284;29;20409;-72
2022/12/29 07:16:58;;;;;;;48.33;5.50;;;;;;;;;;4898805;29;20037;-72
2022/12/29 07:19:24;;;;;;;47.72;5.82;;;;;;;;;;4883240;29;20051;-72
2022/12/29 07:21:50;;;;;;;58.15;6.47;;;;;;;;;;4898288;29;20040;-72
2022/12/29 07:24:16;;;;;;;57.38;6.55;;;;;;;;;;4898743;29;20500;-72
2022/12/29 07:26:42;;;;;;;55.08;5.20;;;;;;;;;;4898709;29;20049;-72
2022/12/29 07:29:08;;;;;;;38.97;4.93;;;;;;;;;;4898573;29;20049;-72
2022/12/29 07:31:34;;;;;;;54.10;8.82;;;;;;;;;;4899606;29;20554;-71
2022/12/29 07:34:00;;;;;;;73.07;6.75;;;;;;;;;;4896458;29;20417;-72
2022/12/29 07:36:26;;;;;;;53.97;6.22;;;;;;;;;;4897998;29;20041;-73
2022/12/29 07:38:52;;;;;;;57.10;5.47;;;;;;;;;;4897299;29;20045;-72
2022/12/29 07:41:18;;;;;;;57.47;5.35;;;;;;;;;;4897040;29;20040;-73
2022/12/29 07:43:48;;;;;;;48.63;4.43;;;9.10;99.90;;;;;;4898084;29;20084;-72
2022/12/29 07:46:14;;;;;;;51.55;5.20;;;;;;;;;;4899441;29;20067;-71
2022/12/29 07:48:40;;;;;;;42.17;5.68;;;;;;;;;;4901236;29;20055;-71
2022/12/29 07:51:06;;;;;;;49.15;4.95;;;;;;;;;;4879479;29;20592;-73
2022/12/29 07:53:32;;;;;;;42.13;3.92;;;;;;;;;;4880101;29;20071;-73
2022/12/29 07:55:58;;;;;;;41.58;4.82;;;;;;;;;;4869294;29;20048;-73
2022/12/29 07:58:25;;;;;;;62.90;5.93;;;;;;;;;;4872090;29;20045;-73
2022/12/29 08:00:57;;;;;;;60.92;7.93;;;;;;;;;;4880481;29;20052;-73
2022/12/29 08:03:24;;;;;;;46.33;4.45;;;9.30;99.90;;;;;;4879585;29;20504;-73
2022/12/29 08:05:50;;;;;;;40.92;5.93;;;;;;;;;;4882200;29;20086;-74
2022/12/29 08:08:16;;;;;;;55.20;6.22;;;;;;;;;;4865984;29;20076;-72
2022/12/29 08:10:42;;;;;;;65.35;5.88;;;;;;;;;;4878336;29;20040;-72
2022/12/29 08:13:09;;;;;;;36.60;4.38;;;;;;;;;;4875039;29;20056;-72
2022/12/29 08:15:35;;;;;;;63.22;7.25;;;;;;;;;;4861847;29;20101;-72
2022/12/29 08:18:01;;;;;;;47.95;5.50;;;;;;;;;;4869079;29;20051;-72
2022/12/29 08:20:27;;;;;;;64.22;6.32;;;;;;;;;;4874344;29;20076;-72
2022/12/29 08:22:53;;;;;;;52.65;5.35;;;;;;;;;;4880215;29;20489;-72
2022/12/29 08:25:19;;;;;;;56.00;5.20;;;;;;;;;;4881134;29;20049;-79
2022/12/29 08:27:45;;;;;;;51.58;4.85;;;;;;;;;;4852715;29;20048;-73
2022/12/29 08:30:12;;;;;;;60.42;5.53;;;;;;;;;;4864859;29;20063;-73
2022/12/29 08:32:38;;;;;;;58.95;6.05;;;;;;;;;;4867584;29;20441;-80
2022/12/29 08:35:04;;;;;;;61.08;6.32;;;;;;;;;;4877962;29;20058;-72
2022/12/29 08:37:30;;;;;;;68.90;7.57;;;;;;;;;;4881431;29;20081;-72
2022/12/29 08:39:57;;;;;;;69.68;8.32;;;;;;;;;;4850644;29;20037;-72
2022/12/29 08:42:23;;;;;;;55.10;6.50;;;;;;;;;;4881415;29;20054;-76
2022/12/29 08:44:49;;;;;;;60.97;5.70;;;;;;;;;;4866425;29;20052;-76
2022/12/29 08:47:15;;;;;;;67.47;8.68;;;;;;;;;;4865452;29;20051;-76
2022/12/29 08:49:42;;;;;;;68.03;4.97;;;;;;;;;;4882033;29;20052;-76
2022/12/29 08:52:08;;;;;;;72.30;7.63;;;;;;;;;;4898386;29;20080;-76
2022/12/29 08:54:34;;;;;;;60.67;7.47;;;;;;;;;;4881528;29;20489;-76
2022/12/29 08:57:00;;;;;;;63.70;7.60;;;;;;;;;;4881869;29;20386;-76
2022/12/29 08:59:26;;;;;;;56.85;5.57;;;;;;;;;;4898430;29;20060;-76
2022/12/29 09:01:52;;;;;;;57.05;6.00;;;;;;;;;;4881519;29;20100;-76
2022/12/29 09:04:18;;;;;;;73.60;7.60;;;;;;;;;;4881554;29;20100;-76
2022/12/29 09:06:45;;;;;;;63.67;6.18;;;;;;;;;;4881437;29;20100;-76
2022/12/29 09:09:11;;;;;;;68.60;7.68;;;;;;;;;;4881313;29;20048;-77
2022/12/29 09:11:37;;;;;;;66.72;7.20;;;;;;;;;;4881268;29;20040;-76
2022/12/29 09:14:04;;;;;;;57.47;5.90;;;;;;;;;;4881688;29;20037;-76
2022/12/29 09:16:30;;;;;;;62.40;6.60;;;;;;;;;;4881448;29;20055;-72
2022/12/29 09:18:56;;;;;;;71.13;7.38;;;;;;;;;;4881136;29;20049;-71
2022/12/29 09:21:22;;;;;;;61.15;5.82;;;;;;;;;;4866031;29;20044;-71
2022/12/29 09:23:48;;;;;;;58.67;5.70;;;9.20;99.90;;;;;;4881162;29;20044;-72
2022/12/29 09:26:14;;;;;;;69.00;7.13;;;;;;;;;;4881203;29;20514;-72
2022/12/29 09:28:40;;;;;;;58.33;5.93;;;;;;;;;;4898233;29;20044;-73
2022/12/29 09:31:06;;;;;;;67.43;7.68;;;;;;;;;;4881289;29;20100;-72
2022/12/29 09:33:35;;;;;;;64.13;6.05;;;;;;;;;;4881377;29;20501;-72
2022/12/29 09:36:01;;;;;;;48.97;6.30;;;;;;;;;;4881133;29;20056;-72
2022/12/29 09:38:28;;;;;;;59.65;7.38;;;;;;;;;;4896985;29;20052;-72
2022/12/29 09:40:58;;;;;;;73.18;7.88;;;9.10;99.90;;;;;;4881517;29;20048;-72
2022/12/29 09:44:03;;;;;;;41.38;4.97;;;8.90;99.90;;;;;;4881116;29;20065;-72
2022/12/29 09:46:33;;;;;;;34.53;5.07;;;8.90;99.90;;;;;;4881087;29;20508;-70
2022/12/29 09:48:59;;;;;;;50.20;4.95;;;;;;;;;;4865695;29;20056;-70
2022/12/29 09:51:28;;;;;;;63.47;5.20;;;8.90;99.90;;;;;;4881100;29;20045;-71
2022/12/29 09:54:00;;;;;;;43.65;4.32;;;;;;;;;;4866122;29;20044;-71
2022/12/29 09:56:27;;;;;;;35.25;4.38;;;;;;;;;;4897753;29;20127;-71
2022/12/29 09:59:17;;;;;;;42.20;4.65;;;8.70;99.90;;;;;;4880960;29;20065;-71
2022/12/29 10:02:04;;;;;;;35.97;5.20;;;;;;;;;;4880996;29;20053;-71
2022/12/29 10:04:30;;;;;;;46.80;5.50;;;;;;;;;;4880890;29;20055;-71
2022/12/29 10:07:09;;;;;;;49.58;6.88;;;;;;;;;;4897623;29;20040;-70
2022/12/29 10:09:54;;;;;;;50.85;5.45;;;;;;;;;;4881126;29;20067;-70
2022/12/29 10:12:20;;;;;;;45.60;5.65;;;;;;;;;;4880893;29;20048;-70
2022/12/29 10:15:23;;;;;;;44.90;6.57;;;8.80;99.90;;;;;;4880975;29;20049;-71
2022/12/29 10:17:49;;;;;;;52.00;5.38;;;;;;;;;;4880947;29;20085;-71
2022/12/29 10:20:38;;;;;;;50.60;6.65;;;;;;;;;;4880623;29;20181;-71
2022/12/29 10:23:26;;;;;;;56.15;7.22;;;;;;;;;;4883116;29;20032;-71
2022/12/29 10:25:55;;;;;;;47.15;4.60;;;;;;;;;;4883908;29;20052;-71
2022/12/29 10:28:23;;;;;;;59.85;7.07;;;8.90;99.90;;;;;;4900873;29;20036;-71
2022/12/29 10:30:52;;;;;;;53.05;6.75;;;;;;;;;;4878542;29;20045;-71
2022/12/29 10:33:31;;;;;;;72.28;7.82;;;;;;;;;;4871783;29;20048;-71
2022/12/29 10:35:58;;;;;;;53.90;6.78;;;;;;;;;;4881033;29;20504;-71
2022/12/29 10:38:36;;;;;;;66.70;6.78;;;9.10;99.90;;;;;;4870664;29;20041;-71
2022/12/29 10:41:11;;;;;;;54.05;5.03;;;;;;;;;;4882200;29;20036;-71
2022/12/29 10:43:50;;;;;;;72.25;8.85;;;9.00;99.90;;;;;;4872142;29;20052;-71
2022/12/29 10:46:25;;;;;;;57.90;7.43;;;;;;;;;;4867170;29;20048;-71
2022/12/29 10:48:51;;;;;;;58.55;6.75;;;;;;;;;;4867936;29;20505;-71
2022/12/29 10:51:23;;;;;;;60.30;6.55;;;;;;;;;;4866823;29;20131;-71
2022/12/29 10:53:53;;;;;;;63.30;6.43;;;;;;;;;;4888935;29;20845;-71
2022/12/29 10:56:25;;;;;;;50.17;6.05;;;;;;;;;;4864576;29;20081;-71
2022/12/29 10:58:54;;;;;;;48.50;6.63;;;9.30;99.90;;;;;;4871777;29;20091;-71
2022/12/29 11:01:21;;;;;;;58.35;6.40;;;;;;;;;;4879697;29;20040;-70
2022/12/29 11:03:50;;;;;;;63.42;6.38;;;;;;;;;;4878599;29;20400;-71
2022/12/29 11:06:34;;;;;;;43.33;4.47;;;;;;;;;;4865850;29;20375;-71
2022/12/29 11:09:13;;;;;;;44.28;6.13;;;;;;;;;;4871701;29;20044;-70
2022/12/29 11:11:39;;;;;;;32.60;4.05;;;;;;;;;;4867379;29;20096;-70
2022/12/29 11:14:19;;;;;;;51.25;6.10;;;9.40;99.90;;;;;;4891670;29;20378;-70
2022/12/29 11:17:03;;;;;;;37.60;5.22;;;9.10;99.90;;;;;;4867645;29;20123;-71
2022/12/29 11:19:33;;;;;;;44.53;5.35;;;;;;;;;;4873952;29;20060;-70
2022/12/29 11:22:23;;;;;;;26.17;4.07;;;9.60;99.90;;;;;;4882721;29;20058;-70
2022/12/29 11:24:50;;;;;;;41.78;4.57;;;9.40;99.90;;;;;;4872462;29;20208;-70
2022/12/29 11:27:25;;;;;;;43.53;4.20;;;9.40;99.90;;;;;;4863153;29;20127;-71
2022/12/29 11:29:52;;;;;;;39.63;4.65;;;;;;;;;;4881158;29;20052;-71
2022/12/29 11:32:18;;;;;;;32.92;4.07;;;;;;;;;;4882482;29;20096;-70
2022/12/29 11:34:44;;;;;;;33.35;3.58;;;;;;;;;;4881976;29;20049;-70
2022/12/29 11:37:30;;;;;;;39.58;5.15;;;9.30;99.90;;;;;;4863989;29;20557;-71
2022/12/29 11:40:03;;;;;;;35.50;5.32;;;9.20;99.90;;;;;;4873787;29;20048;-75
2022/12/29 11:42:42;;;;;;;36.83;3.80;;;;;;;;;;4880615;29;20120;-75
2022/12/29 11:45:20;;;;;;;57.08;5.97;;;;;;;;;;4873534;29;20556;-75
2022/12/29 11:47:54;;;;;;;32.20;3.83;;;9.30;99.90;;;;;;4882504;29;20494;-75
2022/12/29 11:50:31;;;;;;;33.03;5.43;;;9.30;99.90;;;;;;4886285;29;20129;-75
2022/12/29 11:53:13;;;;;;;24.40;4.28;;;9.40;99.90;;;;;;4877245;29;20123;-75
2022/12/29 11:55:39;;;;;;;36.30;5.75;;;;;;;;;;4855377;29;20072;-75
2022/12/29 11:58:05;;;;;;;35.80;4.25;;;;;;;;;;4863796;29;20129;-75
2022/12/29 12:00:34;;;;;;;32.83;3.70;;;9.80;99.90;;;;;;4866990;29;20430;-75
2022/12/29 12:03:02;;;;;;;53.50;5.78;;;;;;;;;;4867795;29;20096;-75
2022/12/29 12:05:57;;;;;;;37.92;4.53;;;9.90;99.90;;;;;;4880350;29;20045;-76
2022/12/29 12:08:43;;;;;;;37.65;4.97;;;;;;;;;;4880081;29;20048;-74
2022/12/29 12:11:18;;;;;;;29.67;3.75;;;;;;;;;;4889773;29;20044;-75
2022/12/29 12:14:01;;;;;;;25.75;3.08;;;9.90;99.90;;;;;;4882133;29;20087;-74
2022/12/29 12:16:54;;;;;;;26.75;3.38;;;10.10;99.90;;;;;;4871541;29;20100;-75
2022/12/29 12:19:31;;;;;;;;;;;10.00;99.90;;;;;;4879365;29;20051;-75
2022/12/29 12:22:27;;;;;;;32.20;3.63;;;9.90;99.90;;;;;;4881609;29;20496;-76
2022/12/29 12:25:16;;;;;;;32.13;3.45;;;10.00;99.90;;;;;;4895911;29;20052;-74
2022/12/29 12:27:57;;;;;;;22.13;2.70;;;10.00;99.90;;;;;;4880093;29;20397;-72
2022/12/29 12:30:25;;;;;;;33.08;4.35;;;;;;;;;;4885277;29;20041;-75
2022/12/29 12:32:56;;;;;;;21.70;3.22;;;;;;;;;;4872028;29;20541;-74
2022/12/29 12:35:24;;;;;;;28.67;3.97;;;9.70;99.90;;;;;;4874855;29;20045;-74
2022/12/29 12:38:14;;;;;;;23.77;2.88;;;;;;;;;;4873552;29;20052;-74
2022/12/29 12:40:40;;;;;;;22.77;2.55;;;;;;;;;;4867550;29;20096;-74
2022/12/29 12:43:20;;;;;;;31.13;2.78;;;10.00;99.90;;;;;;4862487;29;20108;-73
2022/12/29 12:46:07;;;;;;;22.17;2.78;;;10.00;99.90;;;;;;4882008;29;20493;-73
2022/12/29 12:48:36;;;;;;;25.17;2.90;;;;;;;;;;4883638;29;20069;-74
2022/12/29 12:51:06;;;;;;;35.22;4.25;;;;;;;;;;4867685;29;20126;-74
2022/12/29 12:53:32;;;;;;;23.98;2.95;;;;;;;;;;4890321;29;20463;-75
2022/12/29 12:56:16;;;;;;;19.30;2.63;;;;;;;;;;4881109;29;20053;-74
2022/12/29 12:58:52;;;;;;;17.67;2.38;;;;;;;;;;4880419;29;20048;-75
2022/12/29 13:01:37;;;;;;;20.13;3.17;;;;;;;;;;4857493;29;20041;-74
2022/12/29 13:04:22;;;;;;;21.92;3.45;;;;;;;;;;4872423;29;20478;-74
2022/12/29 13:07:03;;;;;;;24.08;3.40;;;10.10;99.90;;;;;;4868478;29;20071;-74
2022/12/29 13:09:55;;;;;;;18.95;3.78;;;10.40;99.90;;;;;;4872469;29;20445;-74
2022/12/29 13:12:39;;;;;;;27.65;3.35;;;10.10;99.90;;;;;;4889208;29;20148;-74
2022/12/29 13:15:05;;;;;;;21.30;4.00;;;;;;;;;;4867028;29;20056;-74
2022/12/29 13:17:41;;;;;;;25.85;2.85;;;;;;;;;;4873980;29;20051;-74
2022/12/29 13:20:17;;;;;;;32.40;3.38;;;;;;;;;;4877565;29;20058;-75
2022/12/29 13:22:47;;;;;;;15.13;2.55;;;;;;;;;;4878176;29;20393;-75
2022/12/29 13:25:32;;;;;;;23.50;2.75;;;;;;;;;;4890001;29;20380;-74
2022/12/29 13:28:06;;;;;;;41.13;6.18;;;;;;;;;;4873000;29;20370;-74
2022/12/29 13:30:39;;;;;;;30.08;5.10;;;;;;;;;;4865272;29;20045;-74
2022/12/29 13:33:24;;;;;;;21.50;3.65;;;;;;;;;;4873553;29;20048;-73
2022/12/29 13:35:56;;;;;;;28.45;2.85;;;;;;;;;;4871788;29;20056;-74
2022/12/29 13:38:31;;;;;;;27.08;3.15;;;;;;;;;;4877067;29;20041;-75
2022/12/29 13:41:00;;;;;;;20.35;2.88;;;;;;;;;;4889259;29;20052;-75
2022/12/29 13:43:28;;;;;;;20.95;3.08;;;;;;;;;;4868202;29;20120;-73
2022/12/29 13:45:58;;;;;;;28.55;2.58;;;;;;;;;;4889279;29;20056;-74
2022/12/29 13:48:39;;;;;;;18.55;3.08;;;9.90;99.90;;;;;;4876368;29;20043;-74
2022/12/29 13:51:05;;;;;;;26.98;5.63;;;;;;;;;;4863062;29;20049;-74
2022/12/29 13:53:53;;;;;;;23.88;4.05;;;9.80;99.90;;;;;;4878627;29;20048;-75
2022/12/29 13:56:24;;;;;;;28.88;3.30;;;;;;;;;;4880988;29;20047;-76
2022/12/29 13:59:06;;;;;;;21.83;2.80;;;;;;;;;;4874777;29;20414;-76
2022/12/29 14:01:40;;;;;;;33.33;4.05;;;;;;;;;;4867049;29;20045;-75
2022/12/29 14:04:12;;;;;;;37.05;5.35;;;;;;;;;;4883436;29;20033;-72
2022/12/29 14:06:40;;;;;;;;;;;9.70;99.90;;;;;;4866990;29;20045;-73
2022/12/29 14:09:27;;;;;;;30.13;5.70;;;9.60;99.90;;;;;;4866020;29;19927;-75
2022/12/29 14:11:53;;;;;;;30.65;4.18;;;;;;;;;;4866886;29;20405;-75
2022/12/29 14:14:31;;;;;;;33.47;4.30;;;9.40;99.90;;;;;;4861869;29;20049;-75
2022/12/29 14:17:10;;;;;;;41.35;5.68;;;;;;;;;;4880141;29;20032;-75
2022/12/29 14:19:41;;;;;;;22.15;4.47;;;9.50;99.90;;;;;;4881909;29;20397;-75
2022/12/29 14:22:09;;;;;;;51.22;6.00;;;;;;;;;;4880829;29;20079;-71
2022/12/29 14:24:35;;;;;;;23.48;3.80;;;;;;;;;;4871013;29;20513;-70
2022/12/29 14:27:21;;;;;;;31.00;3.25;;;;;;;;;;4882687;29;20131;-71
2022/12/29 14:29:49;;;;;;;23.13;4.00;;;;;;;;;;4890273;29;20075;-71
2022/12/29 14:32:24;;;;;;;25.88;2.90;;;9.10;99.90;;;;;;4868379;29;20076;-71
2022/12/29 14:34:51;;;;;;;29.88;3.22;;;;;;;;;;4883755;29;20092;-71
2022/12/29 14:37:26;;;;;;;26.75;3.03;;;;;;;;;;4883818;29;20044;-71
2022/12/29 14:40:11;;;;;;;21.48;3.05;;;;;;;;;;4899236;29;20512;-71
2022/12/29 14:42:40;;;;;;;31.33;3.53;;;;;;;;;;4866311;29;20057;-71
2022/12/29 14:45:12;;;;;;;18.65;3.30;;;9.80;99.90;;;;;;4883988;29;20052;-71
2022/12/29 14:47:38;;;;;;;;;;;;;;;;;;4884049;29;20059;-71
2022/12/29 14:50:36;;;;;;;19.45;3.88;;;9.00;99.90;;;;;;4885473;29;20369;-71
2022/12/29 14:53:06;;;;;;;26.75;4.03;;;9.00;99.90;;;;;;4871943;29;20053;-71
2022/12/29 14:55:35;;;;;;;35.88;5.18;;;;;;;;;;4883499;29;20409;-71
2022/12/29 14:58:04;;;;;;;28.75;4.90;;;9.00;99.90;;;;;;4875183;29;20087;-71
2022/12/29 15:00:32;;;;;;;31.52;3.95;;;9.10;99.90;;;;;;4880937;29;20041;-71